Time;durP1;ratioP1;P1;durP2;ratioP2;P2;SDS_P1;SDS_P2;PMS_P1;PMS_P2;Temp;Humidity;BMP_temperature;BMP_pressure;BME280_temperature;BME280_humidity;BME280_pressure;Samples;Min_cycle;Max_cycle;Signal;HPM_P1;HPM_P2
2023/06/01 00:01:32;;;;;;;6.93;3.90;;;;;;;18.72;49.79;99961.53;7515560;33;37147;-79
2023/06/01 00:05:49;;;;;;;8.13;4.28;;;;;;;18.53;50.09;99954.34;7528499;33;40346;-79
2023/06/01 00:10:06;;;;;;;7.90;4.10;;;;;;;18.32;50.15;99958.84;7528482;33;40025;-78
2023/06/01 00:14:22;;;;;;;6.65;3.95;;;;;;;18.42;50.38;99949.44;7528320;33;37951;-78
2023/06/01 00:18:38;;;;;;;9.95;4.32;;;;;;;18.26;51.16;99960.12;7528510;33;37081;-78
2023/06/01 00:22:55;;;;;;;6.40;3.65;;;;;;;18.11;51.66;99969.63;7528338;33;39048;-79
2023/06/01 00:27:11;;;;;;;8.63;3.80;;;;;;;18.13;51.64;99967.38;7528100;33;39940;-78
2023/06/01 00:31:28;;;;;;;10.32;4.35;;;;;;;18.18;51.27;99964.47;7528050;33;38586;-78
2023/06/01 00:35:44;;;;;;;7.35;3.87;;;;;;;17.89;51.76;99965.00;7528140;33;38037;-78
2023/06/01 00:40:00;;;;;;;6.85;3.87;;;;;;;17.95;51.20;99964.53;7528090;33;39864;-78
2023/06/01 00:44:17;;;;;;;9.32;3.50;;;;;;;17.68;51.55;99962.75;7527763;33;40792;-79
2023/06/01 00:48:34;;;;;;;9.30;3.42;;;;;;;17.62;51.03;99959.28;7527621;33;37975;-77
2023/06/01 00:52:51;;;;;;;6.45;3.78;;;;;;;17.52;51.43;99959.53;7526496;33;37864;-77
2023/06/01 00:57:08;;;;;;;7.87;3.45;;;;;;;17.69;50.38;99963.56;7529974;33;40174;-78
2023/06/01 01:01:27;;;;;;;8.57;4.00;;;;;;;17.65;50.39;99961.41;7530641;33;41466;-78
2023/06/01 01:05:43;;;;;;;7.75;3.35;;;;;;;17.52;51.60;99967.81;7530521;33;37885;-78
2023/06/01 01:10:13;;;;;;;5.78;3.28;;;;;;;17.99;50.00;99957.25;7543368;33;37830;-78
2023/06/01 01:14:55;;;;;;;8.80;3.22;;;;;;;17.73;50.56;99956.25;7555906;33;40003;-78
2023/06/01 01:19:34;;;;;;;9.98;3.50;;;;;;;17.67;50.78;99950.06;7555734;33;40924;-77
2023/06/01 01:24:08;;;;;;;8.77;3.90;;;;;;;17.67;50.48;99954.78;7555859;33;37581;-78
2023/06/01 01:28:42;;;;;;;8.25;3.78;;;;;;;17.72;50.29;99947.19;7542910;33;36798;-78
2023/06/01 01:32:59;;;;;;;5.53;3.30;;;;;;;17.69;50.67;99947.81;7555839;33;39395;-78
2023/06/01 01:37:16;;;;;;;10.02;3.78;;;;;;;17.44;51.65;99944.59;7542651;33;40117;-78
2023/06/01 01:41:32;;;;;;;8.45;4.00;;;;;;;17.56;51.55;99948.72;7542354;33;38614;-77
2023/06/01 01:45:53;;;;;;;6.47;3.65;;;;;;;17.67;51.83;99943.75;7555799;33;37692;-78
2023/06/01 01:50:12;;;;;;;8.13;3.80;;;;;;;17.38;52.47;99950.53;7542801;33;39397;-78
2023/06/01 01:54:29;;;;;;;8.20;3.45;;;;;;;17.13;53.32;99952.78;7555298;33;39943;-77
2023/06/01 01:58:47;;;;;;;7.87;4.00;;;;;;;17.34;52.26;99946.78;7542135;33;37996;-78
2023/06/01 02:03:03;;;;;;;6.70;3.80;;;;;;;17.28;52.11;99948.84;7555588;33;36019;-78
2023/06/01 02:07:20;;;;;;;7.50;3.30;;;;;;;17.10;51.98;99941.59;7554769;33;39499;-78
2023/06/01 02:11:37;;;;;;;6.28;3.58;;;;;;;17.37;51.31;99937.91;7555456;33;39636;-77
2023/06/01 02:15:53;;;;;;;9.38;3.72;;;;;;;17.05;52.63;99935.06;7554961;33;38012;-78
2023/06/01 02:20:10;;;;;;;6.40;3.58;;;;;;;17.20;52.18;99936.62;7555088;33;37372;-78
2023/06/01 02:24:27;;;;;;;7.87;3.50;;;;;;;17.18;52.22;99938.91;7555026;33;39747;-78
2023/06/01 02:28:44;;;;;;;6.62;3.50;;;;;;;17.16;52.00;99935.66;7555124;33;39949;-79
2023/06/01 02:33:00;;;;;;;6.68;3.83;;;;;;;17.24;51.82;99918.34;7555070;33;38027;-79
2023/06/01 02:37:16;;;;;;;6.37;3.22;;;;;;;16.84;52.82;99920.16;7554655;33;36755;-79
2023/06/01 02:41:32;;;;;;;10.38;3.58;;;;;;;16.85;52.36;99917.09;7555427;33;37166;-78
2023/06/01 02:45:49;;;;;;;6.12;3.60;;;;;;;16.83;52.62;99915.72;7554656;33;40128;-79
2023/06/01 02:50:06;;;;;;;7.50;3.65;;;;;;;16.77;52.84;99917.78;7554969;33;38046;-76
2023/06/01 02:54:22;;;;;;;6.78;3.35;;;;;;;16.89;52.56;99915.31;7554869;33;36768;-78
2023/06/01 02:58:38;;;;;;;7.07;3.25;;;;;;;16.81;52.16;99918.78;7554679;33;39084;-78
2023/06/01 03:02:57;;;;;;;6.03;3.08;;;;;;;16.71;53.52;99908.84;7554937;33;39498;-77
2023/06/01 03:07:13;;;;;;;7.62;3.40;;;;;;;16.61;53.70;99910.97;7554426;33;38001;-78
2023/06/01 03:11:29;;;;;;;5.60;3.33;;;;;;;16.62;53.10;99920.88;7554828;33;37425;-77
2023/06/01 03:15:45;;;;;;;8.93;3.47;;;;;;;16.66;52.81;99921.88;7554506;33;39432;-79
2023/06/01 03:20:02;;;;;;;11.20;4.37;;;;;;;16.69;53.23;99913.00;7553963;33;40035;-78
2023/06/01 03:24:19;;;;;;;6.55;3.62;;;;;;;16.79;53.23;99909.22;7554257;33;38700;-78
2023/06/01 03:28:35;;;;;;;8.15;3.50;;;;;;;16.78;53.54;99922.19;7554524;33;36995;-78
2023/06/01 03:32:51;;;;;;;7.35;3.50;;;;;;;16.81;53.53;99915.22;7554446;33;39337;-78
2023/06/01 03:37:10;;;;;;;8.90;3.50;;;;;;;16.80;54.01;99916.34;7554476;33;38983;-78
2023/06/01 03:41:26;;;;;;;6.15;3.35;;;;;;;16.74;54.04;99912.09;7554021;33;38399;-78
2023/06/01 03:45:42;;;;;;;5.87;3.30;;;;;;;16.80;53.48;99916.34;7554292;33;37010;-78
2023/06/01 03:49:59;;;;;;;7.10;3.53;;;;;;;16.69;53.28;99911.09;7554445;33;40187;-78
2023/06/01 03:54:15;;;;;;;7.78;3.20;;;;;;;16.75;53.38;99910.94;7554094;33;40828;-78
2023/06/01 03:58:31;;;;;;;7.87;3.15;;;;;;;16.90;53.20;99905.12;7553722;33;38701;-78
2023/06/01 04:02:53;;;;;;;5.50;3.40;;;;;;;16.85;53.71;99903.31;7553700;33;35702;-78
2023/06/01 04:07:09;;;;;;;7.25;3.40;;;;;;;16.89;53.56;99920.84;7554027;33;40060;-78
2023/06/01 04:11:27;;;;;;;7.15;3.58;;;;;;;16.78;54.53;99911.16;7553792;33;38860;-78
2023/06/01 04:15:45;;;;;;;12.77;5.40;;;;;;;16.84;54.92;99909.94;7553722;33;39087;-77
2023/06/01 04:20:02;;;;;;;6.57;3.70;;;;;;;16.78;56.00;99913.91;7540862;33;37403;-79
2023/06/01 04:24:20;;;;;;;10.30;3.17;;;;;;;17.07;55.08;99918.22;7553542;33;40344;-78
2023/06/01 04:28:43;;;;;;;6.90;3.67;;;;;;;17.06;55.06;99913.84;7552868;33;40086;-78
2023/06/01 04:32:59;;;;;;;;;;;;;;;17.06;55.23;99927.63;7553658;33;37827;-78
2023/06/01 04:37:21;;;;;;;11.63;4.53;;;;;;;17.16;55.33;99913.59;7553796;33;37650;-78
2023/06/01 04:41:38;;;;;;;11.23;4.07;;;;;;;17.18;55.20;99911.34;7553253;33;39521;-78
2023/06/01 04:45:57;;;;;;;8.90;4.30;;;;;;;17.27;55.19;99909.47;7553186;33;39933;-79
2023/06/01 04:50:16;;;;;;;9.68;4.15;;;;;;;17.39;54.81;99916.34;7553029;33;38678;-78
2023/06/01 04:54:33;;;;;;;8.35;3.65;;;;;;;17.35;55.30;99918.09;7527654;33;37163;-78
2023/06/01 04:58:49;;;;;;;9.60;4.35;;;;;;;17.47;55.53;99901.78;7527464;33;39849;-78
2023/06/01 05:03:05;;;;;;;9.50;3.95;;;;;;;17.78;54.54;99900.97;7544633;33;39905;-78
2023/06/01 05:07:24;;;;;;;11.07;4.07;;;;;;;18.07;54.34;99902.44;7539505;33;38836;-78
2023/06/01 05:11:40;;;;;;;9.48;4.15;;;;;;;18.27;53.58;99901.84;7552656;33;37051;-78
2023/06/01 05:15:57;;;;;;;9.32;4.00;;;;;;;18.43;52.65;99904.16;7552683;33;40170;-78
2023/06/01 05:20:13;;;;;;;10.20;3.50;;;;;;;18.66;52.62;99905.66;7552491;33;40890;-78
2023/06/01 05:24:30;;;;;;;7.32;3.15;;;;;;;18.68;52.74;99900.63;7545631;33;38812;-79
2023/06/01 05:28:46;;;;;;;11.23;3.33;;;;;;;18.87;49.20;99896.78;7526709;33;37633;-77
2023/06/01 05:33:03;;;;;;;7.50;3.05;;;;;;;18.83;49.58;99901.31;7543003;33;39398;-78
2023/06/01 05:37:19;;;;;;;8.18;3.58;;;;;;;19.07;49.35;99904.38;7552245;33;39998;-79
2023/06/01 05:41:36;;;;;;;9.98;4.00;;;;;;;18.76;50.86;99902.59;7553028;33;37962;-78
2023/06/01 05:45:52;;;;;;;7.75;3.58;;;;;;;19.12;52.21;99892.38;7555438;33;37188;-78
2023/06/01 05:50:08;;;;;;;13.62;3.70;;;;;;;19.49;51.00;99901.09;7555604;33;39126;-78
2023/06/01 05:54:25;;;;;;;9.18;3.55;;;;;;;19.52;51.43;99905.94;7555316;33;39979;-78
2023/06/01 05:58:41;;;;;;;6.75;3.17;;;;;;;19.48;50.12;99899.47;7554167;33;37841;-68
2023/06/01 06:02:57;;;;;;;6.85;3.08;;;;;;;19.82;50.37;99895.00;7551075;33;36886;-69
2023/06/01 06:07:13;;;;;;;12.48;3.58;;;;;;;19.94;49.04;99899.81;7544323;33;39319;-69
2023/06/01 06:11:30;;;;;;;6.75;3.40;;;;;;;20.29;48.89;99902.44;7554758;33;40823;-68
2023/06/01 06:15:46;;;;;;;7.78;3.40;;;;;;;20.02;49.44;99899.81;7554869;33;37663;-69
2023/06/01 06:20:06;;;;;;;7.12;3.67;;;;;;;20.30;48.63;99895.72;7553786;33;37071;-69
2023/06/01 06:24:22;;;;;;;8.82;2.97;;;;;;;20.55;48.05;99896.72;7553521;33;39025;-69
2023/06/01 06:28:38;;;;;;;6.25;3.20;;;;;;;20.72;47.77;99898.59;7553362;33;41513;-69
2023/06/01 06:32:55;;;;;;;8.77;3.30;;;;;;;21.14;47.98;99902.13;7551487;33;38735;-69
2023/06/01 06:37:11;;;;;;;9.80;3.22;;;;;;;21.41;46.56;99905.47;7552429;33;36993;-68
2023/06/01 06:41:27;;;;;;;9.90;2.95;;;;;;;21.36;46.58;99902.91;7554482;33;40070;-67
2023/06/01 06:45:44;;;;;;;7.53;2.87;;;;;;;21.21;46.46;99901.59;7554684;33;40715;-67
2023/06/01 06:50:00;;;;;;;6.05;3.10;;;;;;;21.42;46.35;99900.72;7554808;33;38066;-71
2023/06/01 06:54:17;;;;;;;8.00;2.95;;;;;;;21.81;46.55;99885.47;7554145;33;37883;-68
2023/06/01 06:58:33;;;;;;;6.80;3.10;;;;;;;22.26;44.39;99879.00;7547051;33;39274;-72
2023/06/01 07:02:50;;;;;;;7.05;2.83;;;;;;;21.70;46.26;99884.31;7545989;33;39919;-71
2023/06/01 07:07:06;;;;;;;11.93;3.10;;;;;;;22.31;45.06;99875.22;7553033;33;38547;-72
2023/06/01 07:11:23;;;;;;;8.05;2.87;;;;;;;22.11;45.20;99877.75;7551529;33;37697;-71
2023/06/01 07:15:40;;;;;;;8.68;3.03;;;;;;;22.46;44.66;99884.81;7553215;33;39007;-70
2023/06/01 07:19:56;;;;;;;7.50;2.97;;;;;;;22.07;45.35;99878.78;7552238;33;40459;-71
2023/06/01 07:24:12;;;;;;;10.07;3.12;;;;;;;22.52;43.92;99869.50;7553475;33;37655;-71
2023/06/01 07:28:30;;;;;;;7.12;3.20;;;;;;;22.66;43.54;99875.50;7552310;33;37611;-72
2023/06/01 07:32:46;;;;;;;5.65;2.87;;;;;;;23.40;42.56;99863.28;7553419;33;39484;-71
2023/06/01 07:37:04;;;;;;;6.55;3.20;;;;;;;23.22;41.75;99863.59;7553895;33;40849;-72
2023/06/01 07:41:33;;;;;;;8.23;2.90;;;;;;;23.52;42.16;99865.97;7540984;33;37629;-71
2023/06/01 07:45:49;;;;;;;6.90;2.85;;;;;;;23.67;41.29;99869.16;7514582;33;37095;-71
2023/06/01 07:50:08;;;;;;;5.65;2.70;;;;;;;23.99;40.36;99865.22;7551993;33;39359;-71
2023/06/01 07:54:25;;;;;;;7.00;2.85;;;;;;;24.30;39.68;99862.72;7547485;33;39949;-72
2023/06/01 07:58:42;;;;;;;8.98;2.80;;;;;;;24.45;38.34;99855.50;7542376;33;38036;-71
2023/06/01 08:02:59;;;;;;;15.82;3.15;;;;;;;24.42;38.41;99854.25;7549100;33;37438;-71
2023/06/01 08:07:16;;;;;;;4.80;2.37;;;;;;;24.99;37.92;99857.50;7550607;33;39295;-72
2023/06/01 08:11:32;;;;;;;6.75;2.90;;;;;;;24.94;36.51;99855.00;7527515;33;39645;-71
2023/06/01 08:15:49;;;;;;;6.12;2.67;;;;;;;24.77;34.16;99861.00;7544423;33;38721;-73
2023/06/01 08:20:10;;;;;;;4.28;2.47;;;;;;;24.70;31.15;99862.47;7552575;33;37266;-73
2023/06/01 08:24:27;;;;;;;6.37;2.57;;;;;;;25.16;31.17;99859.00;7553898;33;40153;-73
2023/06/01 08:28:47;;;;;;;6.28;2.60;;;;;;;25.03;31.71;99858.34;7553714;33;40150;-73
2023/06/01 08:33:03;;;;;;;7.12;2.65;;;;;;;25.64;33.83;99853.91;7553864;33;38663;-72
2023/06/01 08:37:20;;;;;;;7.18;2.42;;;;;;;25.94;32.62;99849.63;7544010;33;37908;-73
2023/06/01 08:41:50;;;;;;;6.65;2.55;;;;;;;26.03;31.56;99847.41;7543960;33;39435;-73
2023/06/01 08:46:07;;;;;;;7.12;2.50;;;;;;;25.57;30.78;99845.44;7553347;33;40204;-73
2023/06/01 08:50:23;;;;;;;3.47;2.30;;;;;;;26.17;32.16;99839.25;7540070;33;38714;-73
2023/06/01 08:54:40;;;;;;;5.93;2.62;;;;;;;26.61;30.13;99838.66;7553193;33;37064;-74
2023/06/01 08:58:56;;;;;;;5.00;2.80;;;;;;;26.65;29.86;99837.91;7552073;33;40324;-73
2023/06/01 09:03:13;;;;;;;4.93;2.80;;;;;;;26.75;30.13;99832.47;7533365;33;40003;-72
2023/06/01 09:07:31;;;;;;;10.82;3.20;;;;;;;26.91;31.85;99823.88;7552288;33;38761;-72
2023/06/01 09:12:08;;;;;;;4.97;2.80;;;;;;;26.88;29.63;99818.25;7550781;33;37570;-72
2023/06/01 09:16:39;;;;;;;6.93;2.62;;;;;;;26.27;29.98;99820.22;7553773;33;39667;-72
2023/06/01 09:21:09;;;;;;;7.50;2.45;;;;;;;27.04;29.27;99820.81;7555995;33;40893;-72
2023/06/01 09:25:27;;;;;;;6.35;2.60;;;;;;;26.88;28.83;99819.03;7555381;33;37872;-72
2023/06/01 09:29:54;;;;;;;6.12;3.10;;;;;;;26.76;29.70;99814.50;7552459;33;39561;-72
2023/06/01 09:34:20;;;;;;;5.15;2.55;;;;;;;27.16;30.27;99812.97;7550992;33;39438;-80
2023/06/01 09:38:36;;;;;;;7.47;2.78;;;;;;;27.26;29.01;99808.66;7541093;33;40849;-78
2023/06/01 09:42:52;;;;;;;8.23;3.12;;;;;;;27.49;28.92;99807.69;7554653;33;37572;-81
2023/06/01 09:47:15;;;;;;;7.90;3.10;;;;;;;27.92;29.46;99808.06;7554250;33;37857;-82
2023/06/01 09:51:32;;;;;;;6.78;2.50;;;;;;;27.65;27.68;99811.03;7555655;33;39422;-82
2023/06/01 09:55:58;;;;;;;9.07;3.05;;;;;;;28.14;28.05;99805.41;7552978;33;40082;-82
2023/06/01 10:00:26;;;;;;;6.78;2.90;;;;;;;28.54;31.60;99803.59;7550666;33;37710;-82
2023/06/01 10:04:49;;;;;;;9.38;3.00;;;;;;;29.06;28.63;99798.59;7541919;33;37163;-81
2023/06/01 10:09:14;;;;;;;5.15;2.58;;;;;;;29.48;27.02;99794.28;7554855;33;39274;-79
2023/06/01 10:13:31;;;;;;;7.62;2.92;;;;;;;28.75;26.42;99786.91;7540863;33;41406;-81
2023/06/01 10:17:48;;;;;;;8.20;2.87;;;;;;;28.88;27.20;99790.13;7554259;33;37240;-77
2023/06/01 10:22:06;;;;;;;10.45;3.20;;;;;;;27.79;26.62;99793.53;7537924;33;37201;-71
2023/06/01 10:26:25;;;;;;;5.22;3.00;;;;;;;28.35;27.36;99790.72;7552367;33;40244;-72
2023/06/01 10:30:41;;;;;;;10.45;3.40;;;;;;;27.68;27.50;99782.25;7540828;33;39004;-73
2023/06/01 10:34:57;;;;;;;7.18;3.15;;;;;;;28.33;26.64;99763.06;7549208;33;37856;-73
2023/06/01 10:39:27;;;;;;;12.15;3.33;;;;;;;28.57;26.52;99772.81;7551103;33;37282;-74
2023/06/01 10:43:45;;;;;;;10.32;3.28;;;;;;;27.89;28.18;99769.59;7554291;33;40167;-74
2023/06/01 10:48:03;;;;;;;8.65;3.78;;;;;;;28.00;27.80;99764.87;7551335;33;40974;-73
2023/06/01 10:52:35;;;;;;;6.07;3.15;;;;;;;28.08;30.37;99766.53;7553174;33;37709;-72
2023/06/01 10:57:23;;;;;;;5.55;2.87;;;;;;;29.18;28.61;99758.97;7554172;33;38161;-73
2023/06/01 11:01:46;;;;;;;8.45;3.15;;;;;;;29.41;26.53;99757.78;7554730;33;39411;-73
2023/06/01 11:06:22;;;;;;;6.95;2.87;;;;;;;29.15;27.92;99748.50;7543391;33;40755;-72
2023/06/01 11:11:02;;;;;;;7.53;3.47;;;;;;;29.57;26.86;99748.94;7551565;33;37611;-73
2023/06/01 11:15:21;;;;;;;6.68;3.47;;;;;;;29.44;30.31;99745.72;7536783;33;37142;-78
2023/06/01 11:19:40;;;;;;;8.65;3.50;;;;;;;30.08;25.86;99736.44;7545973;33;38393;-77
2023/06/01 11:23:58;;;;;;;8.13;3.40;;;;;;;29.37;25.30;99731.69;7533833;33;39918;-77
2023/06/01 11:28:19;;;;;;;14.48;3.50;;;;;;;29.52;25.46;99732.50;7542148;33;37019;-76
2023/06/01 11:32:39;;;;;;;9.95;3.47;;;;;;;28.92;25.44;99729.22;7538825;33;37092;-76
2023/06/01 11:36:58;;;;;;;6.53;3.00;;;;;;;28.95;28.33;99727.63;7535739;33;39412;-76
2023/06/01 11:41:14;;;;;;;6.85;3.05;;;;;;;29.49;27.78;99716.44;7537121;33;39022;-77
2023/06/01 11:45:30;;;;;;;5.20;3.05;;;;;;;29.21;26.94;99718.84;7529771;33;37561;-76
2023/06/01 11:49:48;;;;;;;10.13;3.58;;;;;;;29.59;27.20;99698.78;7527938;33;37177;-78
2023/06/01 11:54:05;;;;;;;8.55;3.70;;;;;;;29.26;26.43;99703.63;7552789;33;39412;-78
2023/06/01 11:58:29;;;;;;;7.75;3.45;;;;;;;29.19;25.23;99690.38;7554131;33;39972;-73
2023/06/01 12:02:45;;;;;;;7.78;3.10;;;;;;;29.38;29.41;99688.37;7554374;33;37978;-73
2023/06/01 12:07:05;;;;;;;11.05;3.50;;;;;;;29.78;27.30;99684.31;7554141;33;36351;-73
2023/06/01 12:11:27;;;;;;;9.23;3.85;;;;;;;30.02;25.42;99683.88;7553569;33;39434;-73
2023/06/01 12:15:44;;;;;;;7.78;3.55;;;;;;;28.92;28.12;99684.31;7553431;33;40821;-73
2023/06/01 12:20:00;;;;;;;6.10;3.37;;;;;;;28.87;28.00;99681.91;7553093;33;38726;-74
2023/06/01 12:24:27;;;;;;;10.70;3.60;;;;;;;28.64;28.76;99673.87;7553734;33;36932;-73
2023/06/01 12:28:53;;;;;;;7.75;3.53;;;;;;;29.31;28.78;99665.94;7553879;33;39384;-73
2023/06/01 12:33:36;;;;;;;9.25;3.95;;;;;;;29.65;30.76;99662.66;7551956;33;40727;-73
2023/06/01 12:38:12;;;;;;;7.55;3.30;;;;;;;29.34;27.36;99665.13;7552965;33;37815;-72
2023/06/01 12:42:39;;;;;;;6.97;3.37;;;;;;;29.57;28.92;99657.06;7528075;33;36680;-73
2023/06/01 12:47:00;;;;;;;7.82;3.30;;;;;;;30.10;25.63;99654.53;7551612;33;40191;-75
2023/06/01 12:51:16;;;;;;;7.60;3.62;;;;;;;29.79;25.72;99651.44;7551725;33;40559;-81
2023/06/01 12:55:33;;;;;;;13.23;3.80;;;;;;;29.28;28.61;99638.66;7517409;33;38762;-80
2023/06/01 12:59:49;;;;;;;6.87;3.60;;;;;;;30.17;27.64;99631.19;7549362;33;37260;-79
2023/06/01 13:04:07;;;;;;;8.57;3.42;;;;;;;30.17;28.26;99628.37;7539501;33;39261;-76
2023/06/01 13:08:23;;;;;;;8.98;3.80;;;;;;;29.61;27.57;99625.38;7552906;33;40829;-75
2023/06/01 13:12:40;;;;;;;10.23;3.30;;;;;;;29.69;26.63;99619.31;7552837;33;38777;-76
2023/06/01 13:16:56;;;;;;;10.00;3.58;;;;;;;30.02;27.33;99600.34;7552772;33;36827;-77
2023/06/01 13:21:13;;;;;;;11.32;3.90;;;;;;;30.33;26.11;99607.00;7551019;33;39310;-78
2023/06/01 13:25:29;;;;;;;10.57;3.85;;;;;;;30.48;25.67;99606.94;7548305;33;40123;-76
2023/06/01 13:29:46;;;;;;;6.87;3.50;;;;;;;30.30;28.44;99607.84;7547303;33;38002;-73
2023/06/01 13:34:03;;;;;;;7.20;4.00;;;;;;;30.15;26.00;99597.87;7573754;33;37202;-73
2023/06/01 13:38:19;;;;;;;8.68;3.80;;;;;;;30.19;24.14;99593.03;7563642;33;40307;-71
2023/06/01 13:42:36;;;;;;;8.00;3.78;;;;;;;29.95;25.00;99591.94;7532642;33;39743;-72
2023/06/01 13:46:52;;;;;;;9.02;3.30;;;;;;;30.26;25.58;99590.19;7551489;33;38862;-79
2023/06/01 13:51:09;;;;;;;8.23;3.58;;;;;;;30.60;23.87;99583.97;7538211;33;38009;-82
2023/06/01 13:55:26;;;;;;;7.70;3.58;;;;;;;30.64;23.65;99575.50;7536717;33;40117;-81
2023/06/01 13:59:42;;;;;;;9.70;4.00;;;;;;;30.86;24.12;99570.50;7508687;33;238346;-81
2023/06/01 14:03:58;;;;;;;6.95;2.95;;;;;;;30.73;22.65;99558.94;7517002;33;38422;-83
2023/06/01 14:08:15;;;;;;;8.15;3.50;;;;;;;30.45;23.53;99559.97;7539866;33;37893;-82
2023/06/01 14:12:32;;;;;;;9.27;3.70;;;;;;;30.31;26.22;99556.00;7529461;33;39406;-83
2023/06/01 14:16:49;;;;;;;8.80;3.47;;;;;;;30.76;25.79;99548.88;7529658;33;40100;-83
2023/06/01 14:21:06;;;;;;;10.73;3.85;;;;;;;31.49;23.94;99546.94;7529441;33;38125;-83
2023/06/01 14:25:22;;;;;;;7.12;3.40;;;;;;;32.19;24.92;99535.19;7529611;33;38319;-83
2023/06/01 14:29:39;;;;;;;10.00;3.67;;;;;;;32.37;22.81;99535.72;7529713;33;39093;-83
2023/06/01 14:33:59;;;;;;;7.47;3.75;;;;;;;31.50;21.70;99528.84;7529034;33;39928;-83
2023/06/01 14:38:15;;;;;;;9.40;3.87;;;;;;;30.96;22.23;99527.41;7529338;33;37987;-83
2023/06/01 14:42:33;;;;;;;9.60;3.83;;;;;;;30.96;23.62;99524.59;7528828;33;36766;-83
2023/06/01 14:46:49;;;;;;;11.88;3.85;;;;;;;31.79;24.39;99518.81;7529436;33;39478;-83
2023/06/01 14:51:05;;;;;;;10.25;4.05;;;;;;;32.50;22.61;99518.19;7529379;33;40025;-83
2023/06/01 14:55:22;;;;;;;6.68;3.55;;;;;;;32.57;22.50;99510.38;7528910;33;38819;-84
2023/06/01 14:59:39;;;;;;;8.70;3.78;;;;;;;32.66;22.35;99507.03;7550531;33;37683;-84
2023/06/01 15:04:06;;;;;;;12.35;3.58;;;;;;;32.81;23.03;99496.31;7554395;33;39358;-84
2023/06/01 15:08:23;;;;;;;9.60;3.40;;;;;;;32.79;23.33;99497.94;7554336;33;39636;-84
2023/06/01 15:12:40;;;;;;;7.85;3.40;;;;;;;32.97;22.79;99497.63;7553411;33;37621;-84
2023/06/01 15:16:57;;;;;;;7.70;3.50;;;;;;;32.88;22.18;99489.75;7554427;33;37416;-84
2023/06/01 15:21:14;;;;;;;6.53;3.45;;;;;;;32.85;22.26;99490.59;7554638;33;40182;-84
2023/06/01 15:25:30;;;;;;;6.78;3.75;;;;;;;33.02;23.07;99485.84;7533072;33;39641;-83
2023/06/01 15:29:47;;;;;;;5.15;3.28;;;;;;;32.83;21.43;99487.41;7528682;33;37952;-84
2023/06/01 15:34:05;;;;;;;11.60;3.50;;;;;;;32.72;21.21;99484.78;7536069;33;37053;-82
2023/06/01 15:38:21;;;;;;;10.43;3.70;;;;;;;32.65;19.80;99474.44;7554254;33;39501;-82
2023/06/01 15:42:37;;;;;;;11.95;6.15;;;;;;;32.36;20.56;99462.81;7548036;33;40965;-80
2023/06/01 15:46:54;;;;;;;12.43;4.12;;;;;;;31.21;22.09;99473.63;7536051;33;37497;-81
2023/06/01 15:51:11;;;;;;;10.50;3.40;;;;;;;31.52;23.79;99470.06;7539270;33;37768;-80
2023/06/01 15:55:27;;;;;;;5.65;3.22;;;;;;;31.53;22.56;99466.03;7539152;33;39423;-80
2023/06/01 15:59:43;;;;;;;8.52;4.00;;;;;;;31.23;22.88;99465.56;7546763;33;39967;-81
2023/06/01 16:03:59;;;;;;;7.87;2.90;;;;;;;31.11;22.62;99459.69;7535617;33;37862;-81
2023/06/01 16:08:16;;;;;;;6.80;3.28;;;;;;;31.11;24.72;99456.88;7537839;33;37142;-80
2023/06/01 16:12:32;;;;;;;8.27;3.58;;;;;;;31.15;25.72;99449.19;7528612;33;39030;-80
2023/06/01 16:16:49;;;;;;;7.68;3.33;;;;;;;31.20;24.89;99437.44;7527967;33;40037;-80
2023/06/01 16:21:05;;;;;;;7.87;3.70;;;;;;;31.20;24.89;99434.63;7528239;33;37862;-81
2023/06/01 16:25:25;;;;;;;12.98;3.37;;;;;;;31.59;25.81;99448.22;7528001;33;35967;-81
2023/06/01 16:29:42;;;;;;;10.30;3.62;;;;;;;31.53;25.36;99440.66;7528148;33;39625;-81
2023/06/01 16:33:58;;;;;;;9.48;3.78;;;;;;;31.04;25.26;99441.66;7528209;33;39640;-81
2023/06/01 16:38:15;;;;;;;8.02;3.37;;;;;;;30.96;24.92;99440.16;7527439;33;37897;-80
2023/06/01 16:42:31;;;;;;;7.75;3.40;;;;;;;31.14;24.59;99430.72;7527858;33;37371;-81
2023/06/01 16:46:47;;;;;;;8.88;3.47;;;;;;;31.22;25.93;99429.41;7526382;33;39320;-81
2023/06/01 16:51:04;;;;;;;6.60;3.33;;;;;;;31.04;25.55;99427.59;7527409;33;40867;-81
2023/06/01 16:55:20;;;;;;;8.57;3.15;;;;;;;31.04;27.04;99436.03;7526291;33;37745;-81
2023/06/01 16:59:37;;;;;;;13.27;3.53;;;;;;;30.80;26.39;99431.47;7527391;33;37092;-81
2023/06/01 17:03:53;;;;;;;11.77;3.35;;;;;;;30.27;26.87;99428.72;7527433;33;39528;-81
2023/06/01 17:08:10;;;;;;;11.40;3.60;;;;;;;30.40;27.69;99420.59;7526842;33;39655;-81
2023/06/01 17:12:27;;;;;;;8.13;3.47;;;;;;;30.51;27.56;99426.12;7527209;33;38766;-81
2023/06/01 17:16:44;;;;;;;6.50;3.30;;;;;;;30.38;27.78;99425.06;7526872;33;36788;-81
2023/06/01 17:21:01;;;;;;;6.32;3.53;;;;;;;30.28;27.92;99421.09;7528435;33;39626;-80
2023/06/01 17:25:17;;;;;;;5.07;3.20;;;;;;;29.91;29.07;99420.56;7550875;33;41067;-75
2023/06/01 17:29:34;;;;;;;6.45;3.12;;;;;;;29.93;28.61;99420.97;7550454;33;37636;-74
2023/06/01 17:33:51;;;;;;;14.05;4.05;;;;;;;29.57;29.51;99417.56;7551843;33;37021;-74
2023/06/01 17:38:07;;;;;;;7.93;3.62;;;;;;;29.72;29.81;99415.47;7553873;33;39604;-74
2023/06/01 17:42:23;;;;;;;10.57;4.18;;;;;;;29.30;31.14;99414.50;7554773;33;40173;-79
2023/06/01 17:46:40;;;;;;;8.45;3.70;;;;;;;29.14;31.39;99415.72;7554887;33;37887;-79
2023/06/01 17:50:56;;;;;;;8.63;3.92;;;;;;;28.87;32.07;99409.81;7555452;33;38051;-78
2023/06/01 17:55:12;;;;;;;6.68;3.30;;;;;;;28.71;32.64;99412.28;7555610;33;39122;-79
2023/06/01 17:59:28;;;;;;;9.38;3.70;;;;;;;28.36;33.15;99411.09;7555591;33;40587;-79
2023/06/01 18:03:45;;;;;;;8.55;3.42;;;;;;;28.14;33.92;99416.72;7555241;33;37929;-79
2023/06/01 18:08:01;;;;;;;9.95;3.60;;;;;;;27.83;35.04;99419.06;7555610;33;37433;-78
2023/06/01 18:12:17;;;;;;;10.38;3.95;;;;;;;27.67;35.23;99427.03;7550261;33;39345;-79
2023/06/01 18:16:34;;;;;;;7.47;4.10;;;;;;;27.37;35.30;99436.53;7554224;33;40965;-80
2023/06/01 18:20:51;;;;;;;8.02;3.70;;;;;;;27.27;35.36;99435.28;7554195;33;38596;-78
2023/06/01 18:25:08;;;;;;;8.38;4.37;;;;;;;26.97;35.70;99435.53;7555186;33;37864;-78
2023/06/01 18:29:28;;;;;;;12.07;4.15;;;;;;;26.85;34.66;99439.47;7555372;33;40139;-78
2023/06/01 18:33:46;;;;;;;12.55;4.78;;;;;;;26.63;35.98;99440.53;7546012;33;40494;-79
2023/06/01 18:38:07;;;;;;;9.00;4.00;;;;;;;26.28;37.15;99439.03;7546194;33;38491;-79
2023/06/01 18:42:31;;;;;;;10.40;4.70;;;;;;;26.03;37.63;99448.03;7555095;33;37902;-81
2023/06/01 18:46:49;;;;;;;8.73;3.58;;;;;;;25.80;37.79;99443.38;7547027;33;39124;-79
2023/06/01 18:51:06;;;;;;;10.50;3.95;;;;;;;25.61;38.34;99455.56;7553438;33;40751;-80
2023/06/01 18:55:22;;;;;;;7.90;3.58;;;;;;;25.44;38.80;99459.75;7541687;33;38719;-80
2023/06/01 18:59:38;;;;;;;7.40;4.12;;;;;;;25.35;38.71;99466.78;7553946;33;36784;-80
2023/06/01 19:03:54;;;;;;;7.32;3.92;;;;;;;25.18;39.37;99473.72;7545608;33;39890;-79
2023/06/01 19:08:18;;;;;;;9.43;4.05;;;;;;;24.98;40.41;99475.84;7548983;33;39759;-79
2023/06/01 19:12:34;;;;;;;7.80;4.07;;;;;;;24.46;41.45;99479.03;7549920;33;38862;-80
2023/06/01 19:16:50;;;;;;;10.55;4.18;;;;;;;24.36;41.86;99497.16;7531928;33;37515;-80
2023/06/01 19:21:17;;;;;;;15.70;4.05;;;;;;;24.26;41.74;99497.78;7554468;33;39290;-80
2023/06/01 19:25:37;;;;;;;11.20;4.00;;;;;;;24.00;42.54;99490.16;7554663;33;40908;-79
2023/06/01 19:29:58;;;;;;;7.22;3.97;;;;;;;23.82;42.62;99492.63;7554402;33;38755;-79
2023/06/01 19:34:15;;;;;;;7.80;3.83;;;;;;;23.63;43.05;99498.97;7549493;33;37028;-79
2023/06/01 19:38:32;;;;;;;12.05;4.18;;;;;;;23.53;42.83;99494.81;7534974;33;39429;-80
2023/06/01 19:42:48;;;;;;;5.72;3.50;;;;;;;23.60;42.39;99494.94;7528945;33;40628;-79
2023/06/01 19:47:06;;;;;;;8.15;3.95;;;;;;;23.36;42.51;99495.25;7529822;33;38097;-80
2023/06/01 19:51:23;;;;;;;8.18;4.00;;;;;;;23.39;42.55;99494.53;7538303;33;37655;-80
2023/06/01 19:55:39;;;;;;;8.85;4.12;;;;;;;22.90;44.24;99495.00;7551685;33;39358;-81
2023/06/01 19:59:55;;;;;;;7.40;3.87;;;;;;;22.87;43.90;99491.78;7527506;33;39901;-81
2023/06/01 20:04:12;;;;;;;8.52;4.43;;;;;;;22.72;44.40;99500.16;7537611;33;38004;-81
2023/06/01 20:08:28;;;;;;;11.38;4.75;;;;;;;22.66;44.80;99502.38;7538924;33;35508;-81
2023/06/01 20:12:45;;;;;;;12.10;4.20;;;;;;;22.65;45.02;99495.22;7543051;33;39419;-80